地図

経路データ

SID SEASON NUMBER BASIN SUBBASIN NAME ISO_TIME NATURE LAT LON WMO_WIND WMO_PRES WMO_AGENCY TRACK_TYPE DIST2LAND LANDFALL IFLAG USA_AGENCY USA_ATCF_ID USA_LAT USA_LON USA_RECORD USA_STATUS USA_WIND USA_PRES USA_SSHS USA_R34_NE USA_R34_SE USA_R34_SW USA_R34_NW USA_R50_NE USA_R50_SE USA_R50_SW USA_R50_NW USA_R64_NE USA_R64_SE USA_R64_SW USA_R64_NW USA_POCI USA_ROCI USA_RMW USA_EYE TOKYO_LAT TOKYO_LON TOKYO_GRADE TOKYO_WIND TOKYO_PRES TOKYO_R50_DIR TOKYO_R50_LONG TOKYO_R50_SHORT TOKYO_R30_DIR TOKYO_R30_LONG TOKYO_R30_SHORT TOKYO_LAND CMA_LAT CMA_LON CMA_CAT CMA_WIND CMA_PRES HKO_LAT HKO_LON HKO_CAT HKO_WIND HKO_PRES NEWDELHI_LAT NEWDELHI_LON NEWDELHI_GRADE NEWDELHI_WIND NEWDELHI_PRES NEWDELHI_CI NEWDELHI_DP NEWDELHI_POCI REUNION_LAT REUNION_LON REUNION_TYPE REUNION_WIND REUNION_PRES REUNION_TNUM REUNION_CI REUNION_RMW REUNION_R34_NE REUNION_R34_SE REUNION_R34_SW REUNION_R34_NW REUNION_R50_NE REUNION_R50_SE REUNION_R50_SW REUNION_R50_NW REUNION_R64_NE REUNION_R64_SE REUNION_R64_SW REUNION_R64_NW BOM_LAT BOM_LON BOM_TYPE BOM_WIND BOM_PRES BOM_TNUM BOM_CI BOM_RMW BOM_R34_NE BOM_R34_SE BOM_R34_SW BOM_R34_NW BOM_R50_NE BOM_R50_SE BOM_R50_SW BOM_R50_NW BOM_R64_NE BOM_R64_SE BOM_R64_SW BOM_R64_NW BOM_ROCI BOM_POCI BOM_EYE BOM_POS_METHOD BOM_PRES_METHOD NADI_LAT NADI_LON NADI_CAT NADI_WIND NADI_PRES WELLINGTON_LAT WELLINGTON_LON WELLINGTON_WIND WELLINGTON_PRES DS824_LAT DS824_LON DS824_STAGE DS824_WIND DS824_PRES TD9636_LAT TD9636_LON TD9636_STAGE TD9636_WIND TD9636_PRES TD9635_LAT TD9635_LON TD9635_WIND TD9635_PRES TD9635_ROCI NEUMANN_LAT NEUMANN_LON NEUMANN_CLASS NEUMANN_WIND NEUMANN_PRES MLC_LAT MLC_LON MLC_CLASS MLC_WIND MLC_PRES USA_GUST BOM_GUST BOM_GUST_PER REUNION_GUST REUNION_GUST_PER USA_SEAHGT USA_SEARAD_NE USA_SEARAD_SE USA_SEARAD_SW USA_SEARAD_NW STORM_SPEED STORM_DIR
2005308S07098 2006 102 SI WA NOT_NAMED 2005-11-04 06:00:00 TS -7.20000 98.0000 main 596 596 O___________O_ jtwc_sh SH022006 -7.20000 98.0000 DB 15 1006 -3 -7.20000 98.0000 TC 15 4 215
2005308S07098 2006 102 SI WA NOT_NAMED 2005-11-04 09:00:00 TS -7.35251 97.8975 main 618 618 P___________P_ SH022006 -7.35251 97.8975 DB 17 1005 -3 -7.35251 97.8975 TC 17 4 213
2005308S07098 2006 102 SI WA NOT_NAMED 2005-11-04 12:00:00 TS -7.50000 97.8000 main 634 634 O___________O_ jtwc_sh SH022006 -7.50000 97.8000 DB 20 1004 -3 -7.50000 97.8000 TC 20 3 213
2005308S07098 2006 102 SI WA NOT_NAMED 2005-11-04 15:00:00 TS -7.64249 97.7075 main 649 649 P___________P_ SH022006 -7.64249 97.7075 DB 20 1004 -3 -7.64249 97.7075 TC 20 4 213
2005308S07098 2006 102 SI WA NOT_NAMED 2005-11-04 18:00:00 TS -7.80000 97.6000 main 672 672 O___________O_ jtwc_sh SH022006 -7.80000 97.6000 DB 20 1004 -3 -7.80000 97.6000 TC 20 4 215
2005308S07098 2006 102 SI WA NOT_NAMED 2005-11-04 21:00:00 TS -7.99250 97.4575 main 695 695 P___________P_ SH022006 -7.99250 97.4575 DB 22 1003 -3 -7.99250 97.4575 TC 22 5 216
2005308S07098 2006 102 SI WA NOT_NAMED 2005-11-05 00:00:00 TS -8.20000 97.3000 main 726 726 O___________O_ jtwc_sh SH022006 -8.20000 97.3000 TD 25 1002 -1 -8.20000 97.3000 TC 25 5 219
2005308S07098 2006 102 SI WA NOT_NAMED 2005-11-05 03:00:00 TS -8.36250 97.1499 main 757 757 P___________P_ SH022006 -8.36250 97.1499 TD 25 1002 -1 -8.36250 97.1499 TC 25 5 216
2005308S07098 2006 102 SI WA NOT_NAMED 2005-11-05 06:00:00 TS -8.60000 97.0000 main 780 780 O___________O_ jtwc_sh SH022006 -8.60000 97.0000 TD 25 1002 -1 1006 150 45 -8.60000 97.0000 TC 25 7 202
2005308S07098 2006 102 SI WA NOT_NAMED 2005-11-05 09:00:00 TS -9.03494 96.8799 main 818 818 P___________P_ SH022006 -9.03494 96.8799 TD 27 1001 -1 1006 150 45 -9.03494 96.8799 TC 27 10 198
2005308S07098 2006 102 SI WA NOT_NAMED 2005-11-05 12:00:00 TS -9.50000 96.7000 main 873 873 O___________O_ jtwc_sh SH022006 -9.50000 96.7000 TD 30 1000 -1 1006 150 45 -9.50000 96.7000 TC 30 9 210
2005308S07098 2006 102 SI WA NOT_NAMED 2005-11-05 15:00:00 TS -9.84492 96.4100 main 920 920 P___________P_ SH022006 -9.84492 96.4100 TD 30 1000 -1 1006 155 45 -9.84492 96.4100 TC 30 9 229
2005308S07098 2006 102 SI WA NOT_NAMED 2005-11-05 18:00:00 TS -10.1000 96.0000 main 975 975 O___________O_ jtwc_sh SH022006 -10.1000 96.0000 TD 30 1000 -1 1006 160 45 -10.1000 96.0000 TC 30 10 245
2005308S07098 2006 102 SI WA NOT_NAMED 2005-11-05 21:00:00 TS -10.2650 95.4948 main 1030 1030 P___________P_ SH022006 -10.2650 95.4948 TD 30 1000 -1 1006 160 45 -10.2650 95.4948 TC 30 11 254
2005308S07098 2006 102 SI WA NOT_NAMED 2005-11-06 00:00:00 TS -10.4000 94.9000 main 1069 1069 O___________O_ jtwc_sh SH022006 -10.4000 94.9000 TD 30 1000 -1 1006 160 45 -10.4000 94.9000 TC 30 13 256
2005308S07098 2006 102 SI WA NOT_NAMED 2005-11-06 03:00:00 TS -10.5700 94.2574 main 1119 1119 P___________P_ SH022006 -10.5700 94.2574 TD 32 998 -1 -10.5700 94.2574 TC 32 13 253
2005308S07098 2006 102 SI WA NOT_NAMED 2005-11-06 06:00:00 TS -10.8000 93.6000 main 1175 1175 O___________O_ jtwc_sh SH022006 -10.8000 93.6000 TS 35 997 0 60 60 60 90 -10.8000 93.6000 TC 35 14 245
2005308S07098 2006 102 SI WA NOT_NAMED 2005-11-06 09:00:00 TS -11.1424 92.9851 main 1238 1238 P___________P_ SH022006 -11.1424 92.9851 TS 35 997 0 60 60 60 90 -11.1424 92.9851 TC 35 14 239
2005308S07098 2006 102 SI WA NOT_NAMED 2005-11-06 12:00:00 TS -11.5000 92.4000 main 1311 1311 O___________O_ jtwc_sh SH022006 -11.5000 92.4000 TS 35 997 0 60 60 60 90 -11.5000 92.4000 TC 35 13 242
2005308S07098 2006 102 SI WA NOT_NAMED 2005-11-06 15:00:00 TS -11.7499 91.8347 main 1367 1367 P___________P_ SH022006 -11.7499 91.8347 TS 35 997 0 60 60 60 90 -11.7499 91.8347 TC 35 12 245
2005308S07098 2006 102 SI WA NOT_NAMED 2005-11-06 18:00:00 TS -12.0000 91.3000 main 1426 1426 O___________O_ jtwc_sh SH022006 -12.0000 91.3000 TS 35 997 0 60 60 60 90 1006 170 45 -12.0000 91.3000 TC 35 12 240
2005308S07098 2006 102 SI WA NOT_NAMED 2005-11-06 21:00:00 TS -12.3349 90.7924 main 1486 1486 P___________P_ SH022006 -12.3349 90.7924 TS 32 998 -1 1006 170 40 -12.3349 90.7924 TC 32 12 234
2005308S07098 2006 102 SI WA NOT_NAMED 2005-11-07 00:00:00 TS -12.7000 90.3000 main 1554 1554 O___________O_ jtwc_sh SH022006 -12.7000 90.3000 TD 30 1000 -1 1006 170 35 -12.7000 90.3000 TC 30 12 234
2005308S07098 2006 102 SI MM NOT_NAMED 2005-11-07 03:00:00 TS -13.0424 89.7924 main 1614 1614 P___________P_ SH022006 -13.0424 89.7924 TD 30 1000 -1 1006 170 35 -13.0424 89.7924 TC 30 12 234
2005308S07098 2006 102 SI MM NOT_NAMED 2005-11-07 06:00:00 TS -13.4000 89.3000 main 1683 1683 O___________O_ jtwc_sh SH022006 -13.4000 89.3000 TD 30 1000 -1 1006 170 35 -13.4000 89.3000 TC 30 12 229
2005308S07098 2006 102 SI MM NOT_NAMED 2005-11-07 09:00:00 TS -13.7995 88.8946 main 1746 1746 P___________P_ SH022006 -13.7995 88.8946 TD 30 1000 -1 1006 170 35 -13.7995 88.8946 TC 30 12 228
2005308S07098 2006 102 SI MM NOT_NAMED 2005-11-07 12:00:00 TS -14.2000 88.4000 main 1815 1815 O___________O_ jtwc_sh SH022006 -14.2000 88.4000 TD 30 1000 -1 1006 170 35 -14.2000 88.4000 TC 30 14 238
2005308S07098 2006 102 SI MM NOT_NAMED 2005-11-07 15:00:00 TS -14.5347 87.6968 main 1889 1889 P___________P_ SH022006 -14.5347 87.6968 TD 30 1000 -1 1006 170 35 -14.5347 87.6968 TC 30 17 246
2005308S07098 2006 102 SI MM NOT_NAMED 2005-11-07 18:00:00 TS -14.9000 86.8000 main 1988 1988 O___________O_ jtwc_sh SH022006 -14.9000 86.8000 TD 30 1000 -1 1006 170 35 -14.9000 86.8000 TC 30 21 246
2005308S07098 2006 102 SI MM NOT_NAMED 2005-11-07 21:00:00 TS -15.3931 85.7080 main 2110 2110 P___________P_ SH022006 -15.3931 85.7080 TD 30 1000 -1 1006 170 35 -15.3931 85.7080 TC 30 24 245
2005308S07098 2006 102 SI MM NOT_NAMED 2005-11-08 00:00:00 TS -15.9000 84.6000 main 2233 2233 O___________O_ jtwc_sh SH022006 -15.9000 84.6000 TD 30 1000 -1 1007 170 35 -15.9000 84.6000 TC 30 22 244
2005308S07098 2006 102 SI MM NOT_NAMED 2005-11-08 03:00:00 TS -16.3274 83.6851 main 2334 2334 P___________P_ SH022006 -16.3274 83.6851 TD 27 1001 -1 1007 155 35 -16.3274 83.6851 TC 27 18 244
2005308S07098 2006 102 SI MM NOT_NAMED 2005-11-08 06:00:00 TS -16.7000 82.9000 main 2427 O___________O_ jtwc_sh SH022006 -16.7000 82.9000 DB 25 1002 -3 1008 140 35 -16.7000 82.9000 TC 25 17 244

IBTrACS Databaseについて

本データベースは、米国NOAAが公開する1842年以降の世界の熱帯低気圧のベストトラックデータアーカイブInternational Best Track Archive for Climate Stewardship (IBTrACS)を、ウェブで閲覧しやすい形式に変換したものです。

最終更新日:2021-12-06